Time;durP1;ratioP1;P1;durP2;ratioP2;P2;SDS_P1;SDS_P2;PMS_P1;PMS_P2;Temp;Humidity;BMP_temperature;BMP_pressure;BME280_temperature;BME280_humidity;BME280_pressure;Samples;Min_cycle;Max_cycle;Signal;HPM_P1;HPM_P2
2022/09/13 00:00:10;;;;;;;33.30;31.50;;;25.60;57.50;;;;;;5035464;28;20035;-83
2022/09/13 00:02:36;;;;;;;32.08;30.38;;;25.70;57.40;;;;;;5071078;28;20032;-83
2022/09/13 00:05:02;;;;;;;33.88;31.90;;;25.80;57.40;;;;;;5052741;28;20032;-83
2022/09/13 00:07:28;;;;;;;39.90;37.78;;;25.60;58.30;;;;;;5052734;28;20500;-83
2022/09/13 00:09:54;;;;;;;44.53;42.05;;;25.30;59.60;;;;;;5052619;28;20043;-83
2022/09/13 00:12:20;;;;;;;48.92;46.30;;;25.10;59.70;;;;;;5052586;28;20025;-83
2022/09/13 00:14:47;;;;;;;69.88;66.20;;;25.20;60.10;;;;;;5019082;28;20044;-82
2022/09/13 00:17:13;;;;;;;59.33;56.28;;;25.30;60.00;;;;;;5052286;28;20032;-83
2022/09/13 00:19:39;;;;;;;61.97;58.92;;;25.40;59.80;;;;;;5035669;28;20032;-83
2022/09/13 00:22:05;;;;;;;65.72;62.10;;;25.50;60.20;;;;;;5070523;28;20032;-82
2022/09/13 00:24:32;;;;;;;61.80;58.58;;;25.60;60.20;;;;;;5052411;28;20431;-83
2022/09/13 00:26:59;;;;;;;57.35;54.22;;;25.60;60.40;;;;;;5052560;28;20462;-83
2022/09/13 00:29:26;;;;;;;75.47;71.68;;;25.70;60.60;;;;;;5034989;28;20044;-82
2022/09/13 00:31:52;;;;;;;76.65;72.70;;;25.50;60.30;;;;;;5034958;28;20037;-83
2022/09/13 00:34:18;;;;;;;73.63;70.07;;;25.40;60.50;;;;;;5070246;28;20037;-83
2022/09/13 00:36:44;;;;;;;65.57;62.20;;;25.50;60.50;;;;;;5052364;28;20032;-83
2022/09/13 00:39:10;;;;;;;56.92;54.15;;;25.60;60.80;;;;;;5052309;28;20029;-83
2022/09/13 00:41:37;;;;;;;51.38;48.88;;;25.60;60.60;;;;;;5052366;28;20043;-83
2022/09/13 00:44:03;;;;;;;54.15;51.38;;;25.60;61.00;;;;;;5052205;28;20489;-82
2022/09/13 00:46:44;;;;;;;46.05;43.25;;;25.50;61.00;;;;;;5038758;28;20029;-83
2022/09/13 00:49:34;;;;;;;47.33;44.92;;;25.50;60.70;;;;;;5023293;28;20489;-83
2022/09/13 00:52:06;;;;;;;44.65;42.25;;;25.50;61.00;;;;;;5056700;28;20032;-83
2022/09/13 00:54:39;;;;;;;39.22;37.05;;;25.50;62.40;;;;;;5039996;28;20036;-84
2022/09/13 00:57:05;;;;;;;44.28;41.70;;;25.60;63.00;;;;;;5040584;28;20036;-83
2022/09/13 00:59:34;;;;;;;60.67;57.42;;;25.40;66.00;;;;;;5039172;28;20029;-84
2022/09/13 01:02:00;;;;;;;58.78;55.38;;;25.20;67.50;;;;;;5022110;28;20039;-86
2022/09/13 01:04:27;;;;;;;59.70;55.45;;;24.80;69.90;;;;;;5039463;28;20031;-86
2022/09/13 01:07:02;;;;;;;57.05;53.15;;;24.60;71.10;;;;;;5039410;28;20040;-85
2022/09/13 01:09:28;;;;;;;48.22;45.25;;;24.50;72.20;;;;;;5057146;28;20027;-86
2022/09/13 01:12:03;;;;;;;38.30;35.45;;;24.30;72.50;;;;;;5022788;28;20032;-86
2022/09/13 01:14:29;;;;;;;33.97;31.35;;;24.30;73.80;;;;;;5040340;28;20044;-86
2022/09/13 01:16:55;;;;;;;31.05;28.58;;;24.20;74.60;;;;;;5038631;28;20036;-86
2022/09/13 01:19:22;;;;;;;28.10;25.98;;;24.10;75.60;;;;;;5022449;28;20040;-86
2022/09/13 01:22:18;;;;;;;29.63;27.15;;;24.20;75.50;;;;;;5022972;28;20040;-85
2022/09/13 01:25:28;;;;;;;33.90;31.20;;;24.30;75.80;;;;;;5039071;28;20050;-85
2022/09/13 01:28:11;;;;;;;32.03;29.58;;;24.30;75.90;;;;;;5011558;28;20033;-85
2022/09/13 01:30:43;;;;;;;40.10;36.78;;;24.30;76.10;;;;;;5010749;28;20561;-85
2022/09/13 01:33:13;;;;;;;39.08;36.30;;;24.40;75.70;;;;;;4993943;28;20038;-85
2022/09/13 01:35:45;;;;;;;35.10;32.35;;;24.40;75.50;;;;;;5027751;28;20185;-85
2022/09/13 01:38:29;;;;;;;39.97;37.20;;;24.30;76.70;;;;;;5010885;28;20036;-85
2022/09/13 01:41:03;;;;;;;41.33;37.88;;;24.30;78.30;;;;;;5042699;28;20041;-84
2022/09/13 01:43:54;;;;;;;47.50;43.72;;;24.20;77.10;;;;;;5046615;28;20037;-85
2022/09/13 01:46:51;;;;;;;50.10;46.70;;;24.20;77.10;;;;;;5014044;28;20149;-84
2022/09/13 01:50:07;;;;;;;48.35;45.25;;;24.20;77.70;;;;;;4994760;28;20038;-84
2022/09/13 01:52:42;;;;;;;51.35;47.92;;;24.20;78.80;;;;;;5009480;28;20037;-84
2022/09/13 01:55:23;;;;;;;55.65;51.85;;;24.10;78.60;;;;;;5009521;28;20053;-84
2022/09/13 01:57:54;;;;;;;44.20;41.05;;;24.10;78.60;;;;;;5014070;28;20049;-84
2022/09/13 02:00:20;;;;;;;54.35;50.75;;;24.20;78.10;;;;;;5052396;28;20036;-84
2022/09/13 02:03:03;;;;;;;46.78;43.67;;;24.30;77.60;;;;;;5018547;28;20029;-82
2022/09/13 02:05:54;;;;;;;51.50;47.83;;;24.30;78.10;;;;;;5003027;28;20037;-84
2022/09/13 02:08:39;;;;;;;;;;;24.40;77.80;;;;;;5018341;28;20401;-84
2022/09/13 02:11:06;;;;;;;57.30;53.30;;;24.30;76.50;;;;;;5033461;28;20337;-83
2022/09/13 02:13:48;;;;;;;62.38;57.85;;;24.30;77.60;;;;;;5034709;28;20040;-83
2022/09/13 02:16:20;;;;;;;62.80;58.40;;;24.30;78.00;;;;;;5034093;28;20045;-84
2022/09/13 02:18:48;;;;;;;59.17;55.33;;;24.20;78.70;;;;;;5034916;28;20029;-83
2022/09/13 02:21:20;;;;;;;55.45;51.72;;;24.10;78.70;;;;;;5034757;28;20033;-84
2022/09/13 02:23:51;;;;;;;51.85;48.65;;;24.10;78.60;;;;;;5018743;28;20025;-84
2022/09/13 02:26:17;;;;;;;46.53;43.25;;;24.00;78.50;;;;;;5000882;28;20099;-84
2022/09/13 02:28:56;;;;;;;51.55;47.92;;;23.90;80.00;;;;;;5032633;28;20033;-84
2022/09/13 02:31:27;;;;;;;46.38;43.60;;;23.80;80.70;;;;;;5053773;28;20044;-84
2022/09/13 02:33:56;;;;;;;47.00;43.55;;;23.90;79.60;;;;;;5054305;28;20035;-84
2022/09/13 02:36:24;;;;;;;49.63;46.42;;;24.00;79.10;;;;;;5071687;28;20040;-83
2022/09/13 02:39:02;;;;;;;46.70;43.75;;;24.10;79.60;;;;;;5054265;28;20028;-83
2022/09/13 02:41:42;;;;;;;51.97;48.38;;;24.10;79.60;;;;;;5053411;28;20032;-83
2022/09/13 02:44:18;;;;;;;51.00;47.70;;;24.10;79.30;;;;;;5052028;28;20025;-83
2022/09/13 02:47:10;;;;;;;54.05;50.38;;;24.20;78.80;;;;;;5054026;28;20059;-83
2022/09/13 02:49:55;;;;;;;46.08;43.00;;;24.20;79.50;;;;;;5054056;28;20051;-84
2022/09/13 02:52:44;;;;;;;51.35;47.95;;;24.20;78.90;;;;;;5071723;28;20029;-84
2022/09/13 02:55:14;;;;;;;46.85;44.03;;;24.20;79.10;;;;;;5056354;28;20382;-84
2022/09/13 02:58:01;;;;;;;53.55;50.38;;;24.20;79.40;;;;;;5053735;28;20024;-84
2022/09/13 03:00:27;;;;;;;45.42;42.08;;;24.20;79.70;;;;;;5056018;28;20025;-83
2022/09/13 03:02:54;;;;;;;47.65;44.13;;;24.20;80.40;;;;;;5037000;28;20047;-83
2022/09/13 03:05:20;;;;;;;44.63;41.83;;;24.00;81.80;;;;;;5037594;28;20055;-83
2022/09/13 03:07:46;;;;;;;49.40;46.13;;;23.60;84.10;;;;;;5020460;28;20037;-84
2022/09/13 03:10:13;;;;;;;66.57;62.60;;;23.30;85.20;;;;;;5053315;28;20024;-84
2022/09/13 03:12:54;;;;;;;64.43;60.58;;;23.40;84.60;;;;;;5019990;28;20037;-83
2022/09/13 03:15:57;;;;;;;66.28;62.13;;;23.40;84.40;;;;;;5053136;28;20040;-84
2022/09/13 03:18:36;;;;;;;73.72;69.13;;;23.40;83.90;;;;;;5053305;28;20056;-83
2022/09/13 03:21:22;;;;;;;66.85;62.67;;;23.40;83.50;;;;;;5053288;28;20377;-83
2022/09/13 03:24:01;;;;;;;62.33;58.42;;;23.60;83.20;;;;;;5053105;28;20028;-83
2022/09/13 03:26:59;;;;;;;80.72;76.18;;;23.60;82.70;;;;;;5037493;28;20052;-84
2022/09/13 03:30:01;;;;;;;75.82;71.38;;;23.70;82.30;;;;;;5009117;28;20046;-82
2022/09/13 03:32:56;;;;;;;85.07;80.05;;;23.80;82.00;;;;;;5008038;28;20455;-83
2022/09/13 03:35:48;;;;;;;69.18;65.00;;;23.80;81.90;;;;;;5001451;28;20057;-84
2022/09/13 03:38:29;;;;;;;82.03;77.47;;;23.90;81.80;;;;;;5008707;28;20038;-83
2022/09/13 03:41:01;;;;;;;85.95;81.00;;;23.90;81.10;;;;;;4988590;28;20045;-83
2022/09/13 03:43:39;;;;;;;51.40;48.30;;;23.90;81.60;;;;;;5006361;28;20022;-83
2022/09/13 03:46:16;;;;;;;46.28;43.22;;;23.80;82.50;;;;;;5011983;28;20045;-83
2022/09/13 03:48:43;;;;;;;78.05;73.03;;;23.50;83.70;;;;;;4988919;28;20522;-84
2022/09/13 03:51:09;;;;;;;70.97;66.65;;;23.40;84.10;;;;;;4972978;28;20042;-84
2022/09/13 03:53:40;;;;;;;67.20;62.92;;;23.50;82.90;;;;;;4972599;28;20440;-84
2022/09/13 03:56:13;;;;;;;80.97;76.18;;;23.60;82.50;;;;;;4972901;28;20089;-83
2022/09/13 03:58:39;;;;;;;84.78;79.57;;;23.60;82.40;;;;;;4972826;28;20043;-83
2022/09/13 04:01:06;;;;;;;96.47;91.07;;;23.60;81.90;;;;;;4972406;28;20511;-83
2022/09/13 04:03:32;;;;;;;100.10;94.40;;;23.70;82.10;;;;;;4972850;28;20038;-83
2022/09/13 04:05:58;;;;;;;99.55;93.53;;;23.60;81.40;;;;;;5041222;28;20036;-83
2022/09/13 04:08:24;;;;;;;72.38;68.07;;;23.70;81.40;;;;;;5050321;28;20478;-84
2022/09/13 04:10:53;;;;;;;70.50;66.22;;;23.70;81.40;;;;;;5032729;28;20037;-83
2022/09/13 04:13:21;;;;;;;78.85;74.10;;;23.60;81.40;;;;;;5017281;28;20025;-83
2022/09/13 04:15:49;;;;;;;89.53;83.80;;;23.60;81.40;;;;;;5049857;28;20037;-83
2022/09/13 04:18:15;;;;;;;106.28;100.13;;;23.60;81.50;;;;;;5035551;28;20382;-83
2022/09/13 04:20:41;;;;;;;115.78;109.60;;;23.50;83.00;;;;;;5023104;28;20393;-83
2022/09/13 04:23:07;;;;;;;95.13;89.68;;;23.40;83.90;;;;;;5056844;28;20051;-84
2022/09/13 04:25:36;;;;;;;84.25;79.60;;;23.10;85.50;;;;;;5039163;28;20025;-83
2022/09/13 04:28:02;;;;;;;72.00;67.43;;;23.10;85.20;;;;;;5014047;28;20025;-84
2022/09/13 04:30:29;;;;;;;70.07;65.75;;;23.00;85.50;;;;;;5018700;28;20037;-84
2022/09/13 04:32:58;;;;;;;60.88;56.88;;;23.00;85.30;;;;;;5037015;28;20379;-83
2022/09/13 04:35:25;;;;;;;61.72;57.42;;;23.10;84.50;;;;;;5019858;28;20047;-83
2022/09/13 04:37:54;;;;;;;66.95;62.85;;;23.10;83.80;;;;;;5019541;28;20471;-83
2022/09/13 04:40:21;;;;;;;58.03;53.92;;;23.20;83.40;;;;;;5041876;28;20029;-83
2022/09/13 04:42:47;;;;;;;65.32;60.83;;;23.20;83.10;;;;;;5038592;28;20292;-83
2022/09/13 04:45:13;;;;;;;97.97;91.97;;;23.20;82.90;;;;;;5056383;28;20028;-83
2022/09/13 04:47:40;;;;;;;92.78;87.50;;;23.30;82.80;;;;;;5038942;28;20025;-83
2022/09/13 04:50:06;;;;;;;77.13;72.25;;;23.10;84.80;;;;;;5038532;28;20045;-83
2022/09/13 04:52:32;;;;;;;60.75;56.63;;;22.80;86.10;;;;;;5056731;28;20052;-83
2022/09/13 04:55:00;;;;;;;55.08;51.45;;;22.90;85.20;;;;;;5057136;28;20044;-83
2022/09/13 04:57:29;;;;;;;67.03;63.03;;;23.00;84.70;;;;;;5057094;28;20025;-83
2022/09/13 04:59:55;;;;;;;63.85;59.85;;;23.10;84.50;;;;;;5022395;28;20032;-84
2022/09/13 05:02:21;;;;;;;65.28;61.40;;;23.20;83.50;;;;;;5056944;28;20040;-83
2022/09/13 05:04:47;;;;;;;63.28;59.08;;;23.20;83.10;;;;;;5058753;28;20028;-83
2022/09/13 05:07:13;;;;;;;56.60;52.97;;;23.20;83.00;;;;;;5059004;28;20519;-83
2022/09/13 05:09:39;;;;;;;59.50;55.55;;;23.10;83.10;;;;;;5058399;28;20041;-84
2022/09/13 05:12:06;;;;;;;53.90;50.70;;;23.10;83.10;;;;;;5042316;28;20488;-83
2022/09/13 05:14:32;;;;;;;62.40;58.28;;;23.20;83.50;;;;;;5058675;28;20041;-83
2022/09/13 05:16:58;;;;;;;78.47;73.70;;;23.30;83.30;;;;;;5056229;28;20511;-84
2022/09/13 05:19:24;;;;;;;94.15;88.50;;;23.20;84.40;;;;;;5057860;28;20041;-84
2022/09/13 05:21:50;;;;;;;70.00;65.93;;;23.10;84.80;;;;;;5041643;28;20037;-84
2022/09/13 05:24:16;;;;;;;56.95;53.33;;;23.10;83.90;;;;;;5058847;28;20020;-84
2022/09/13 05:26:42;;;;;;;65.70;61.53;;;23.10;83.60;;;;;;5076726;28;20120;-84
2022/09/13 05:29:08;;;;;;;61.20;57.13;;;23.10;83.70;;;;;;5075790;28;20035;-84
2022/09/13 05:31:36;;;;;;;59.55;55.63;;;23.20;83.50;;;;;;5054609;28;20504;-84
2022/09/13 05:34:09;;;;;;;65.03;60.63;;;23.20;83.10;;;;;;5055527;28;20025;-84
2022/09/13 05:36:35;;;;;;;69.97;65.63;;;23.10;83.30;;;;;;5055822;28;20055;-83
2022/09/13 05:39:02;;;;;;;91.32;86.18;;;23.10;84.40;;;;;;5055366;28;20058;-83
2022/09/13 05:41:28;;;;;;;72.68;68.50;;;22.80;86.10;;;;;;5054964;28;20044;-83
2022/09/13 05:43:54;;;;;;;54.85;51.20;;;22.70;86.20;;;;;;5055630;28;20024;-83
2022/09/13 05:46:20;;;;;;;56.78;53.42;;;22.80;85.90;;;;;;5072591;28;20044;-83
2022/09/13 05:48:47;;;;;;;67.70;63.65;;;22.90;85.10;;;;;;5038147;28;20048;-83
2022/09/13 05:51:18;;;;;;;74.57;70.28;;;23.00;85.20;;;;;;5038384;28;20037;-83
2022/09/13 05:53:47;;;;;;;71.57;67.00;;;22.90;85.10;;;;;;5038145;28;20037;-83
2022/09/13 05:56:15;;;;;;;81.10;76.45;;;22.90;85.00;;;;;;5055167;28;20045;-83
2022/09/13 05:58:42;;;;;;;95.18;89.65;;;23.00;84.70;;;;;;5038512;28;20049;-83
2022/09/13 06:01:09;;;;;;;94.55;89.07;;;23.00;84.30;;;;;;5063036;28;20036;-84
2022/09/13 06:03:35;;;;;;;86.82;81.55;;;23.10;84.20;;;;;;5018112;28;20108;-83
2022/09/13 06:06:02;;;;;;;87.88;82.90;;;23.10;84.00;;;;;;5035273;28;20025;-83
2022/09/13 06:08:29;;;;;;;83.32;78.05;;;23.00;84.90;;;;;;5034992;28;20385;-84
2022/09/13 06:10:59;;;;;;;90.00;84.82;;;22.90;85.20;;;;;;5019196;28;20041;-83
2022/09/13 06:13:25;;;;;;;93.83;88.07;;;22.80;85.50;;;;;;5018394;28;20045;-83
2022/09/13 06:15:51;;;;;;;75.95;71.65;;;22.70;86.00;;;;;;5051817;28;20033;-83
2022/09/13 06:18:18;;;;;;;57.15;53.47;;;22.70;86.30;;;;;;5017669;28;20516;-84
2022/09/13 06:20:44;;;;;;;59.55;55.92;;;22.70;85.20;;;;;;5034792;28;20481;-82
2022/09/13 06:23:10;;;;;;;51.53;48.20;;;22.80;86.40;;;;;;5034761;28;20481;-83
2022/09/13 06:25:36;;;;;;;56.28;52.45;;;22.80;85.20;;;;;;5052440;28;20037;-84
2022/09/13 06:28:03;;;;;;;87.93;82.90;;;22.90;85.20;;;;;;5052024;28;20032;-83
2022/09/13 06:30:29;;;;;;;70.35;66.15;;;22.90;85.10;;;;;;5035856;28;20033;-84
2022/09/13 06:32:56;;;;;;;83.38;78.60;;;22.90;84.90;;;;;;5053700;28;20032;-83
2022/09/13 06:35:22;;;;;;;85.88;80.57;;;23.00;84.90;;;;;;5054515;28;20040;-83
2022/09/13 06:37:48;;;;;;;87.93;82.93;;;22.90;84.80;;;;;;5036662;28;20489;-83
2022/09/13 06:40:15;;;;;;;91.68;85.85;;;23.00;84.80;;;;;;5034035;28;20045;-83
2022/09/13 06:42:42;;;;;;;98.65;92.45;;;22.90;85.30;;;;;;5034240;28;20032;-84
2022/09/13 06:45:08;;;;;;;89.30;83.25;;;22.90;85.40;;;;;;5033994;28;20025;-83
2022/09/13 06:47:34;;;;;;;65.38;59.58;;;22.80;85.40;;;;;;5026261;28;20492;-83
2022/09/13 06:50:01;;;;;;;45.85;42.25;;;22.90;85.60;;;;;;5054042;28;20055;-83
2022/09/13 06:52:27;;;;;;;41.25;38.40;;;22.90;85.20;;;;;;5037157;28;20039;-84
2022/09/13 06:54:53;;;;;;;78.38;73.88;;;22.90;85.30;;;;;;5020332;28;20041;-84
2022/09/13 06:57:19;;;;;;;45.67;42.67;;;22.80;86.00;;;;;;5054027;28;20043;-84
2022/09/13 06:59:45;;;;;;;61.95;57.78;;;22.70;85.90;;;;;;5037025;28;20488;-84
2022/09/13 07:02:13;;;;;;;37.60;35.28;;;22.80;85.70;;;;;;5053067;28;20043;-84
2022/09/13 07:04:39;;;;;;;41.00;38.10;;;22.90;85.40;;;;;;5037064;28;20466;-84
2022/09/13 07:07:05;;;;;;;31.08;28.90;;;22.80;85.30;;;;;;5071735;28;20028;-83
2022/09/13 07:09:33;;;;;;;34.00;30.98;;;22.60;86.80;;;;;;5053643;28;20031;-84
2022/09/13 07:11:59;;;;;;;62.33;58.38;;;22.40;87.80;;;;;;5020661;28;20484;-84
2022/09/13 07:14:27;;;;;;;77.43;72.95;;;22.40;88.00;;;;;;5020175;28;20047;-84
2022/09/13 07:16:53;;;;;;;29.65;27.77;;;22.40;88.30;;;;;;5036611;28;20044;-84
2022/09/13 07:19:21;;;;;;;76.65;71.82;;;22.30;88.30;;;;;;5037012;28;20032;-84
2022/09/13 07:21:51;;;;;;;79.88;75.15;;;22.30;88.30;;;;;;5037119;28;20029;-84
2022/09/13 07:24:17;;;;;;;71.10;67.10;;;22.50;87.90;;;;;;5053942;28;20028;-84
2022/09/13 07:26:43;;;;;;;78.85;74.15;;;22.60;88.20;;;;;;5053792;28;20363;-84
2022/09/13 07:29:12;;;;;;;76.82;72.40;;;22.60;88.10;;;;;;5053389;28;20040;-84
2022/09/13 07:31:39;;;;;;;87.30;82.35;;;22.60;88.20;;;;;;5052795;28;20108;-84
2022/09/13 07:34:06;;;;;;;79.32;74.38;;;22.60;88.00;;;;;;5053238;28;20460;-83
2022/09/13 07:36:33;;;;;;;88.80;83.63;;;22.70;88.00;;;;;;5053259;28;20047;-84
2022/09/13 07:39:00;;;;;;;60.13;56.30;;;22.80;87.30;;;;;;5053093;28;20031;-84
2022/09/13 07:41:27;;;;;;;45.20;42.33;;;22.90;87.10;;;;;;5036110;28;20481;-83
2022/09/13 07:43:53;;;;;;;60.78;57.15;;;22.80;87.60;;;;;;5053038;28;20028;-84
2022/09/13 07:46:24;;;;;;;65.15;60.97;;;22.60;88.40;;;;;;5018833;28;20044;-83
2022/09/13 07:48:55;;;;;;;78.47;74.35;;;22.70;88.60;;;;;;5036177;28;20101;-83
2022/09/13 07:51:22;;;;;;;70.00;65.60;;;22.60;88.80;;;;;;5037527;28;20485;-84
2022/09/13 07:53:51;;;;;;;56.13;52.85;;;22.60;89.00;;;;;;5052228;28;20028;-83
2022/09/13 07:56:21;;;;;;;72.10;67.25;;;22.50;89.70;;;;;;5052985;28;20040;-83
2022/09/13 07:58:48;;;;;;;77.68;73.50;;;22.50;90.00;;;;;;5036138;28;20024;-83
2022/09/13 08:01:34;;;;;;;43.67;41.00;;;22.60;89.70;;;;;;5035656;28;20505;-83
2022/09/13 08:04:04;;;;;;;36.35;33.95;;;22.70;88.90;;;;;;5036274;28;20020;-84
2022/09/13 08:06:31;;;;;;;61.40;57.92;;;22.70;89.30;;;;;;5070766;28;20462;-83
2022/09/13 08:08:57;;;;;;;32.80;30.02;;;22.70;89.60;;;;;;5052614;28;20477;-83
2022/09/13 08:11:47;;;;;;;35.13;32.30;;;22.70;89.20;;;;;;5052968;28;20031;-83
2022/09/13 08:14:15;;;;;;;66.10;61.95;;;22.60;89.40;;;;;;5038580;28;20470;-84
2022/09/13 08:16:41;;;;;;;48.60;45.28;;;22.80;89.10;;;;;;5035832;28;20045;-84
2022/09/13 08:19:08;;;;;;;43.78;40.88;;;23.00;88.30;;;;;;5052604;28;20107;-84
2022/09/13 08:21:36;;;;;;;48.72;45.33;;;23.00;87.70;;;;;;5036240;28;20025;-83
2022/09/13 08:24:03;;;;;;;42.78;40.03;;;23.00;87.80;;;;;;5036551;28;20024;-84
2022/09/13 08:26:30;;;;;;;46.22;43.33;;;23.00;87.10;;;;;;5036178;28;20083;-84
2022/09/13 08:28:58;;;;;;;47.50;44.17;;;23.00;87.10;;;;;;5051630;28;20044;-84
2022/09/13 08:31:25;;;;;;;47.25;44.15;;;23.20;86.60;;;;;;5070108;28;20029;-84
2022/09/13 08:33:52;;;;;;;46.13;42.85;;;23.30;85.30;;;;;;5052616;28;20076;-83
2022/09/13 08:36:18;;;;;;;46.70;43.75;;;23.40;85.50;;;;;;5052820;28;20033;-84
2022/09/13 08:38:58;;;;;;;54.70;51.45;;;23.40;85.40;;;;;;5052434;28;20021;-83
2022/09/13 08:41:39;;;;;;;48.55;45.38;;;23.40;84.90;;;;;;5052422;28;20024;-83
2022/09/13 08:44:29;;;;;;;43.85;40.88;;;23.30;84.60;;;;;;5070066;28;20041;-83
2022/09/13 08:46:59;;;;;;;43.03;40.08;;;23.10;85.50;;;;;;5069977;28;20485;-84
2022/09/13 08:49:39;;;;;;;43.42;40.10;;;23.10;85.50;;;;;;5035378;28;20055;-83
2022/09/13 08:52:14;;;;;;;41.13;38.03;;;23.00;86.00;;;;;;5037416;28;20179;-82
2022/09/13 08:54:40;;;;;;;43.65;40.25;;;23.10;85.90;;;;;;5070637;28;20029;-83
2022/09/13 08:57:10;;;;;;;42.65;39.50;;;23.10;86.10;;;;;;5035530;28;20043;-83
2022/09/13 09:00:03;;;;;;;41.85;38.42;;;23.20;86.00;;;;;;5051659;28;20044;-83
2022/09/13 09:02:57;;;;;;;44.15;40.80;;;23.20;85.70;;;;;;5047652;28;20037;-83
2022/09/13 09:05:25;;;;;;;43.90;40.85;;;23.30;85.40;;;;;;5052725;28;20382;-84
2022/09/13 09:08:01;;;;;;;54.53;50.88;;;23.30;85.50;;;;;;5035223;28;20048;-83
2022/09/13 09:10:45;;;;;;;51.13;47.20;;;23.40;85.80;;;;;;5053818;28;20048;-84
2022/09/13 09:13:20;;;;;;;44.83;41.83;;;23.40;85.60;;;;;;5035736;28;20029;-83
2022/09/13 09:15:47;;;;;;;52.38;49.25;;;23.50;85.40;;;;;;5059186;28;20055;-84
2022/09/13 09:18:22;;;;;;;51.47;48.25;;;23.50;84.70;;;;;;5039592;28;20031;-83
2022/09/13 09:20:55;;;;;;;51.88;48.05;;;23.50;84.70;;;;;;5038702;28;20036;-83
2022/09/13 09:23:44;;;;;;;54.50;51.28;;;23.50;83.90;;;;;;5038738;28;20037;-83
2022/09/13 09:26:18;;;;;;;61.67;57.67;;;23.50;83.80;;;;;;5055363;28;20024;-84
2022/09/13 09:29:00;;;;;;;53.50;49.97;;;23.50;84.50;;;;;;5055364;28;20032;-82
2022/09/13 09:31:44;;;;;;;59.85;56.13;;;23.50;83.70;;;;;;5043519;28;20029;-82
2022/09/13 09:34:26;;;;;;;54.65;50.67;;;23.60;84.40;;;;;;5035288;28;20052;-84
2022/09/13 09:37:26;;;;;;;60.90;57.47;;;23.70;83.30;;;;;;5035219;28;20033;-84
2022/09/13 09:39:52;;;;;;;63.70;59.45;;;23.70;82.90;;;;;;5036127;28;20029;-84
2022/09/13 09:42:20;;;;;;;65.10;61.25;;;23.90;83.00;;;;;;5035234;28;20382;-84
2022/09/13 09:45:01;;;;;;;74.78;70.13;;;24.10;82.50;;;;;;5018279;28;20108;-84
2022/09/13 09:47:29;;;;;;;;;;;24.30;81.20;;;;;;5051584;28;20103;-84
2022/09/13 09:50:18;;;;;;;77.68;72.93;;;24.30;80.00;;;;;;5035158;28;19917;-84
2022/09/13 09:53:03;;;;;;;77.18;72.05;;;24.40;80.80;;;;;;5035291;28;20036;-83
2022/09/13 09:55:29;;;;;;;76.00;71.55;;;24.30;80.90;;;;;;5052594;28;20040;-84
2022/09/13 09:57:57;;;;;;;74.88;70.50;;;24.30;81.00;;;;;;5035174;28;20029;-84
2022/09/13 10:00:26;;;;;;;80.20;75.32;;;24.30;80.70;;;;;;5034692;28;20490;-84
2022/09/13 10:02:54;;;;;;;73.07;68.78;;;24.20;80.50;;;;;;5018358;28;20482;-84
2022/09/13 10:05:21;;;;;;;77.88;73.07;;;24.20;80.80;;;;;;5035264;28;20040;-84
2022/09/13 10:07:59;;;;;;;77.82;73.38;;;24.20;80.20;;;;;;5035282;28;20036;-84
2022/09/13 10:10:33;;;;;;;70.93;66.53;;;24.30;80.10;;;;;;5034584;28;20036;-84
2022/09/13 10:12:59;;;;;;;71.47;66.90;;;24.30;80.40;;;;;;5035229;28;20033;-84
2022/09/13 10:15:31;;;;;;;74.90;70.38;;;24.30;81.10;;;;;;5034053;28;20505;-84
2022/09/13 10:18:07;;;;;;;76.85;72.07;;;24.30;80.40;;;;;;5035274;28;20037;-84
2022/09/13 10:20:34;;;;;;;77.35;72.68;;;24.30;80.10;;;;;;5018052;28;20044;-85
2022/09/13 10:23:15;;;;;;;79.63;74.90;;;24.30;80.60;;;;;;5017939;28;20033;-84
2022/09/13 10:25:43;;;;;;;75.00;70.20;;;24.30;80.20;;;;;;5034484;28;20382;-84
2022/09/13 10:28:17;;;;;;;79.10;74.07;;;24.30;80.20;;;;;;5007426;28;20038;-83
2022/09/13 10:31:09;;;;;;;77.30;72.78;;;24.40;80.10;;;;;;5019844;28;20372;-84
2022/09/13 10:33:36;;;;;;;79.65;75.10;;;24.40;80.00;;;;;;5017811;28;20052;-84
2022/09/13 10:36:23;;;;;;;80.63;75.82;;;24.50;80.10;;;;;;5034470;28;20048;-84
2022/09/13 10:39:06;;;;;;;79.25;74.53;;;24.50;80.10;;;;;;5033950;28;20021;-84
2022/09/13 10:41:34;;;;;;;75.50;70.72;;;24.60;80.50;;;;;;5033966;28;20033;-84
2022/09/13 10:44:02;;;;;;;80.25;75.55;;;24.60;80.40;;;;;;5034552;28;20297;-84
2022/09/13 10:46:30;;;;;;;78.25;73.53;;;24.70;80.60;;;;;;5016821;28;20029;-84
2022/09/13 10:48:56;;;;;;;78.78;74.50;;;24.90;80.80;;;;;;5025886;28;20036;-84
2022/09/13 10:51:25;;;;;;;80.05;75.07;;;25.00;79.60;;;;;;5036973;28;20366;-84
2022/09/13 10:54:10;;;;;;;77.55;72.75;;;25.30;78.20;;;;;;5071504;28;20039;-85
2022/09/13 10:56:37;;;;;;;76.63;72.07;;;25.40;78.10;;;;;;5071822;28;20036;-85
2022/09/13 10:59:22;;;;;;;79.30;74.57;;;25.50;78.20;;;;;;5037115;28;20032;-84
2022/09/13 11:01:51;;;;;;;72.65;68.13;;;25.60;77.30;;;;;;5036748;28;20035;-84
2022/09/13 11:04:27;;;;;;;71.53;66.97;;;25.50;77.20;;;;;;5071792;28;20029;-84
2022/09/13 11:07:15;;;;;;;77.18;72.45;;;25.70;77.80;;;;;;5053963;28;20495;-85
2022/09/13 11:09:56;;;;;;;74.45;70.20;;;25.80;77.70;;;;;;5038996;28;20055;-84
2022/09/13 11:12:41;;;;;;;77.82;73.25;;;25.90;77.00;;;;;;5071572;28;20469;-84
2022/09/13 11:15:19;;;;;;;72.80;68.40;;;26.10;76.90;;;;;;5053153;28;20032;-84
2022/09/13 11:17:57;;;;;;;44.47;41.72;;;26.40;77.30;;;;;;5052975;28;20060;-84
2022/09/13 11:20:26;;;;;;;73.03;68.65;;;26.50;74.20;;;;;;5071323;28;20028;-85
2022/09/13 11:23:25;;;;;;;44.13;41.22;;;26.50;74.90;;;;;;5070997;28;20025;-84
2022/09/13 11:26:08;;;;;;;52.03;48.33;;;26.70;74.00;;;;;;5009329;28;20034;-84
2022/09/13 11:29:10;;;;;;;37.85;35.55;;;26.80;74.20;;;;;;4977397;28;20034;-84
2022/09/13 11:32:03;;;;;;;37.70;35.40;;;27.10;72.30;;;;;;5008673;28;20380;-85
2022/09/13 11:34:55;;;;;;;39.10;35.95;;;27.30;72.70;;;;;;4975615;28;20400;-85
2022/09/13 11:37:48;;;;;;;34.80;32.38;;;27.40;72.80;;;;;;4978532;28;20045;-85
2022/09/13 11:40:20;;;;;;;35.95;33.25;;;27.40;70.60;;;;;;4988037;28;20068;-85
2022/09/13 11:43:01;;;;;;;37.63;35.03;;;27.50;70.60;;;;;;4972685;28;20038;-84
2022/09/13 11:45:27;;;;;;;38.83;35.70;;;27.60;69.70;;;;;;5005638;28;20052;-84
2022/09/13 11:48:06;;;;;;;39.05;35.78;;;27.60;69.90;;;;;;4973018;28;20034;-83
2022/09/13 11:50:38;;;;;;;42.40;39.20;;;27.70;69.80;;;;;;4988889;28;20050;-84
2022/09/13 11:53:28;;;;;;;42.15;39.45;;;27.80;68.90;;;;;;4988931;28;20045;-85
2022/09/13 11:56:05;;;;;;;43.75;40.60;;;27.80;69.80;;;;;;4975380;28;20034;-85
2022/09/13 11:58:49;;;;;;;47.70;44.90;;;27.90;68.80;;;;;;4974313;28;20491;-85
2022/09/13 12:01:44;;;;;;;51.70;47.92;;;28.10;68.60;;;;;;4956787;28;20034;-85
2022/09/13 12:04:24;;;;;;;52.63;49.22;;;28.30;68.20;;;;;;5030485;28;20041;-85
2022/09/13 12:06:54;;;;;;;56.95;52.95;;;28.30;67.70;;;;;;5032409;28;20029;-85
2022/09/13 12:09:32;;;;;;;56.88;53.22;;;28.40;67.90;;;;;;5032872;28;20344;-85
2022/09/13 12:12:08;;;;;;;54.67;50.95;;;28.50;66.80;;;;;;5016503;28;20025;-85
2022/09/13 12:14:57;;;;;;;57.88;54.00;;;28.60;65.80;;;;;;5032813;28;20025;-85
2022/09/13 12:17:40;;;;;;;53.97;50.40;;;28.60;65.30;;;;;;5032539;28;20103;-85
2022/09/13 12:20:16;;;;;;;49.22;46.33;;;28.60;64.60;;;;;;5034490;28;20025;-84
2022/09/13 12:22:42;;;;;;;52.13;49.00;;;28.70;63.90;;;;;;5017202;28;20463;-85
2022/09/13 12:25:18;;;;;;;49.45;46.50;;;28.70;62.40;;;;;;5032642;28;20033;-85
2022/09/13 12:27:54;;;;;;;52.80;49.78;;;28.70;61.50;;;;;;5032517;28;20064;-85
2022/09/13 12:30:22;;;;;;;54.92;51.85;;;28.70;62.20;;;;;;5033504;28;20449;-85
2022/09/13 12:32:48;;;;;;;51.42;47.88;;;28.70;61.80;;;;;;5016103;28;20041;-85
2022/09/13 12:35:30;;;;;;;53.58;50.28;;;28.80;61.50;;;;;;5032418;28;20036;-85
2022/09/13 12:38:04;;;;;;;51.95;48.63;;;28.80;61.50;;;;;;5015714;28;20049;-85
2022/09/13 12:40:56;;;;;;;50.97;47.88;;;28.80;61.50;;;;;;5015509;28;20041;-85
2022/09/13 12:43:32;;;;;;;51.72;48.33;;;28.70;61.50;;;;;;5019541;28;20029;-85
2022/09/13 12:46:20;;;;;;;52.53;48.65;;;28.70;61.90;;;;;;5016421;28;20050;-85
2022/09/13 12:48:49;;;;;;;51.60;48.42;;;28.70;62.00;;;;;;5035027;28;20033;-85
2022/09/13 12:51:39;;;;;;;48.30;45.30;;;28.70;61.50;;;;;;5054377;28;20029;-85
2022/09/13 12:54:30;;;;;;;48.70;45.40;;;28.60;62.30;;;;;;5037737;28;20382;-84
2022/09/13 12:57:11;;;;;;;;;;;28.60;62.40;;;;;;5054519;28;20045;-84